Time;durP1;ratioP1;P1;durP2;ratioP2;P2;SDS_P1;SDS_P2;PMS_P1;PMS_P2;Temp;Humidity;BMP_temperature;BMP_pressure;BME280_temperature;BME280_humidity;BME280_pressure;Samples;Min_cycle;Max_cycle;Signal;HPM_P1;HPM_P2
2021/06/23 00:01:40;;;;;;;20.35;12.52;;;12.10;99.90;;;;;;5036138;28;20111;-60
2021/06/23 00:04:06;;;;;;;21.70;12.73;;;11.30;99.90;;;;;;5036311;28;20029;-60
2021/06/23 00:06:32;;;;;;;19.08;12.02;;;12.00;99.90;;;;;;5036240;28;20095;-60
2021/06/23 00:08:58;;;;;;;15.38;12.30;;;11.90;99.90;;;;;;5036302;28;20057;-60
2021/06/23 00:11:24;;;;;;;19.38;12.50;;;12.10;99.90;;;;;;5036299;28;20049;-59
2021/06/23 00:13:50;;;;;;;21.40;12.77;;;11.80;99.90;;;;;;5036076;28;20021;-60
2021/06/23 00:16:16;;;;;;;19.38;13.52;;;12.30;99.90;;;;;;5036250;28;20034;-60
2021/06/23 00:18:42;;;;;;;21.90;13.02;;;11.90;99.90;;;;;;5036019;28;20024;-59
2021/06/23 00:21:07;;;;;;;19.70;12.73;;;12.00;99.90;;;;;;5036162;28;20057;-60
2021/06/23 00:23:33;;;;;;;19.77;13.40;;;12.30;99.90;;;;;;5036085;28;20065;-59
2021/06/23 00:25:59;;;;;;;21.27;12.48;;;11.80;99.90;;;;;;5036303;28;20037;-60
2021/06/23 00:28:25;;;;;;;17.77;12.73;;;12.90;99.90;;;;;;5035864;28;20029;-60
2021/06/23 00:30:51;;;;;;;18.00;11.80;;;12.60;99.90;;;;;;5035573;28;20118;-59
2021/06/23 00:33:19;;;;;;;21.92;13.32;;;12.90;99.90;;;;;;5036030;28;20044;-59
2021/06/23 00:35:46;;;;;;;19.55;11.63;;;11.80;99.90;;;;;;5036695;28;20022;-60
2021/06/23 00:38:12;;;;;;;16.60;12.25;;;12.60;99.90;;;;;;5038139;28;20032;-59
2021/06/23 00:40:38;;;;;;;24.60;12.82;;;11.60;99.90;;;;;;5039596;28;20030;-59
2021/06/23 00:43:05;;;;;;;20.35;12.10;;;12.50;99.90;;;;;;5039374;28;20025;-60
2021/06/23 00:45:32;;;;;;;19.75;12.13;;;12.30;99.90;;;;;;5039701;28;20065;-59
2021/06/23 00:47:59;;;;;;;17.08;11.32;;;12.40;99.90;;;;;;5039042;28;20460;-60
2021/06/23 00:50:26;;;;;;;16.40;11.32;;;12.00;99.90;;;;;;5039480;28;20041;-61
2021/06/23 00:52:54;;;;;;;18.85;11.25;;;12.40;99.90;;;;;;5039219;28;20103;-60
2021/06/23 00:55:25;;;;;;;23.80;11.52;;;12.80;99.90;;;;;;5039496;28;20021;-60
2021/06/23 00:57:54;;;;;;;19.27;11.23;;;12.40;99.90;;;;;;5039063;28;20037;-60
2021/06/23 01:00:31;;;;;;;21.20;11.35;;;12.10;99.90;;;;;;5039527;28;20030;-59
2021/06/23 01:03:00;;;;;;;21.25;12.18;;;13.70;99.90;;;;;;5039186;28;20026;-60
2021/06/23 01:05:26;;;;;;;18.08;10.63;;;12.50;99.90;;;;;;5039281;28;20033;-60
2021/06/23 01:07:53;;;;;;;17.42;10.77;;;11.70;99.90;;;;;;5038972;28;20501;-60
2021/06/23 01:10:19;;;;;;;18.25;12.60;;;12.60;99.90;;;;;;5039200;28;20041;-60
2021/06/23 01:12:54;;;;;;;18.83;10.93;;;12.10;99.90;;;;;;5039031;28;20120;-59
2021/06/23 01:15:20;;;;;;;23.75;12.15;;;12.50;99.90;;;;;;5039004;28;20171;-60
2021/06/23 01:17:47;;;;;;;15.15;11.43;;;12.50;99.90;;;;;;5039115;28;20108;-60
2021/06/23 01:20:13;;;;;;;22.70;11.23;;;12.20;99.90;;;;;;5038811;28;20367;-60
2021/06/23 01:22:42;;;;;;;24.80;11.27;;;12.60;99.90;;;;;;5038859;28;20256;-60
2021/06/23 01:25:12;;;;;;;14.45;11.38;;;12.30;99.90;;;;;;5038677;28;20033;-60
2021/06/23 01:27:41;;;;;;;23.90;11.93;;;12.70;99.90;;;;;;5038568;28;20037;-59
2021/06/23 01:30:08;;;;;;;14.85;10.40;;;12.10;99.90;;;;;;5038313;28;20481;-59
2021/06/23 01:32:34;;;;;;;14.10;10.25;;;12.60;99.90;;;;;;5038368;28;20084;-60
2021/06/23 01:35:01;;;;;;;16.17;9.85;;;12.30;99.90;;;;;;5038907;28;20075;-60
2021/06/23 01:37:27;;;;;;;17.45;10.23;;;11.50;99.90;;;;;;5038803;28;20405;-59
2021/06/23 01:39:53;;;;;;;15.63;11.25;;;12.50;99.90;;;;;;5038477;28;20025;-60
2021/06/23 01:42:19;;;;;;;12.77;9.50;;;13.00;99.90;;;;;;5038703;28;20028;-60
2021/06/23 01:44:45;;;;;;;18.80;10.88;;;12.20;99.90;;;;;;5038757;28;20021;-59
2021/06/23 01:47:10;;;;;;;12.15;9.98;;;12.40;99.90;;;;;;5038295;28;20065;-59
2021/06/23 01:49:36;;;;;;;13.90;9.88;;;11.80;99.90;;;;;;5037996;28;20037;-60
2021/06/23 01:52:02;;;;;;;16.95;10.60;;;12.10;99.90;;;;;;5038403;28;20065;-60
2021/06/23 01:54:28;;;;;;;12.55;9.98;;;12.50;99.90;;;;;;5038337;28;20021;-60
2021/06/23 01:56:54;;;;;;;19.52;10.60;;;12.60;99.90;;;;;;5038248;28;20089;-60
2021/06/23 01:59:20;;;;;;;20.30;10.68;;;12.60;99.90;;;;;;5038118;28;20375;-60
2021/06/23 02:02:32;;;;;;;18.10;9.95;;;12.20;99.90;;;;;;5038268;28;20053;-60
2021/06/23 02:05:16;;;;;;;15.57;10.40;;;11.80;99.90;;;;;;5035104;28;20045;-59
2021/06/23 02:07:58;;;;;;;15.45;10.40;;;12.50;99.90;;;;;;5037867;28;20040;-60
2021/06/23 02:10:49;;;;;;;14.57;10.25;;;12.50;99.90;;;;;;5038228;28;20179;-60
2021/06/23 02:14:05;;;;;;;23.48;11.57;;;12.40;99.90;;;;;;5038334;28;20032;-60
2021/06/23 02:16:33;;;;;;;12.90;10.02;;;12.10;99.90;;;;;;4976892;28;20098;-60
2021/06/23 02:19:05;;;;;;;13.30;9.20;;;12.20;99.90;;;;;;5026078;28;20030;-59
2021/06/23 02:21:36;;;;;;;18.80;9.57;;;12.10;99.90;;;;;;5018214;28;20036;-60
2021/06/23 02:24:03;;;;;;;13.85;10.95;;;12.00;99.90;;;;;;5018003;28;20026;-60
2021/06/23 02:26:29;;;;;;;14.88;9.90;;;12.00;99.90;;;;;;5018016;28;20192;-59
2021/06/23 02:28:55;;;;;;;15.82;10.18;;;12.20;99.90;;;;;;5019892;28;20049;-60
2021/06/23 02:31:21;;;;;;;17.63;10.23;;;12.30;99.90;;;;;;5037194;28;20129;-59
2021/06/23 02:33:48;;;;;;;17.98;10.68;;;11.70;99.90;;;;;;5037518;28;20559;-60
2021/06/23 02:36:14;;;;;;;13.18;10.57;;;12.20;99.90;;;;;;5037835;28;20021;-60
2021/06/23 02:38:40;;;;;;;15.95;9.93;;;12.00;99.90;;;;;;5037534;28;20025;-60
2021/06/23 02:41:06;;;;;;;13.80;10.20;;;12.30;99.90;;;;;;5037529;28;20022;-59
2021/06/23 02:43:32;;;;;;;10.02;9.02;;;11.50;99.90;;;;;;5037056;28;20052;-60
2021/06/23 02:45:59;;;;;;;12.15;9.75;;;12.40;99.90;;;;;;5037149;28;20112;-60
2021/06/23 02:48:26;;;;;;;13.15;9.93;;;13.40;99.90;;;;;;5037328;28;20040;-59
2021/06/23 02:51:08;;;;;;;16.15;8.68;;;12.30;99.90;;;;;;5037495;28;20038;-59
2021/06/23 02:53:34;;;;;;;17.08;10.50;;;12.10;99.90;;;;;;5037279;28;20033;-60
2021/06/23 02:56:01;;;;;;;12.82;9.98;;;12.20;99.90;;;;;;5037031;28;20029;-60
2021/06/23 02:58:28;;;;;;;19.27;10.07;;;12.20;99.90;;;;;;5037124;28;20021;-60
2021/06/23 03:00:54;;;;;;;10.13;8.70;;;11.90;99.90;;;;;;5035958;28;20024;-59
2021/06/23 03:03:20;;;;;;;17.27;9.25;;;11.80;99.90;;;;;;5037238;28;20452;-59
2021/06/23 03:05:46;;;;;;;19.42;9.52;;;9.20;99.90;;;;;;5037052;28;20025;-59
2021/06/23 03:08:12;;;;;;;12.38;9.40;;;11.80;99.90;;;;;;5036810;28;20025;-59
2021/06/23 03:10:38;;;;;;;13.45;9.18;;;11.60;99.90;;;;;;5036921;28;20029;-60
2021/06/23 03:13:04;;;;;;;12.25;8.57;;;12.10;99.90;;;;;;5036640;28;20029;-60
2021/06/23 03:15:30;;;;;;;13.65;8.18;;;10.80;99.90;;;;;;5036536;28;20026;-60
2021/06/23 03:17:56;;;;;;;12.57;8.85;;;11.70;99.90;;;;;;5036880;28;20036;-59
2021/06/23 03:20:22;;;;;;;12.82;8.25;;;12.20;99.90;;;;;;5036628;28;20017;-60
2021/06/23 03:22:48;;;;;;;13.88;7.97;;;12.10;99.90;;;;;;5037165;28;20041;-60
2021/06/23 03:25:13;;;;;;;9.43;8.48;;;11.50;99.90;;;;;;5036526;28;20027;-60
2021/06/23 03:27:39;;;;;;;18.90;8.80;;;12.20;99.90;;;;;;5036576;28;20448;-61
2021/06/23 03:30:06;;;;;;;13.95;8.55;;;12.70;99.90;;;;;;5036369;28;20426;-60
2021/06/23 03:32:32;;;;;;;13.48;7.80;;;11.60;99.90;;;;;;5036454;28;20028;-60
2021/06/23 03:34:58;;;;;;;9.98;6.68;;;11.70;99.90;;;;;;5036910;28;20459;-60
2021/06/23 03:37:24;;;;;;;12.55;7.18;;;12.40;99.90;;;;;;5036515;28;20440;-60
2021/06/23 03:39:50;;;;;;;11.93;8.65;;;11.40;99.90;;;;;;5036617;28;20021;-60
2021/06/23 03:42:16;;;;;;;11.35;7.45;;;12.20;99.90;;;;;;5036810;28;20033;-59
2021/06/23 03:44:42;;;;;;;9.88;6.90;;;12.10;99.90;;;;;;5036519;28;20124;-59
2021/06/23 03:47:08;;;;;;;13.13;7.53;;;11.90;99.90;;;;;;5036258;28;20025;-59
2021/06/23 03:49:33;;;;;;;11.95;7.28;;;12.60;99.90;;;;;;5036611;28;20473;-60
2021/06/23 03:52:00;;;;;;;7.50;6.68;;;12.00;99.90;;;;;;5036454;28;20032;-59
2021/06/23 03:54:26;;;;;;;14.48;7.75;;;11.10;99.90;;;;;;5036419;28;20504;-60
2021/06/23 03:56:52;;;;;;;7.65;6.88;;;12.50;99.90;;;;;;5036324;28;20429;-59
2021/06/23 03:59:18;;;;;;;8.98;8.07;;;12.10;99.90;;;;;;5036362;28;20029;-60
2021/06/23 04:01:44;;;;;;;11.98;7.28;;;12.10;99.90;;;;;;5036340;28;20032;-60
2021/06/23 04:04:09;;;;;;;9.52;6.85;;;12.20;99.90;;;;;;5036295;28;20108;-60
2021/06/23 04:06:35;;;;;;;12.73;6.88;;;11.60;99.90;;;;;;5036313;28;20025;-60
2021/06/23 04:09:01;;;;;;;10.57;7.18;;;12.50;99.90;;;;;;5036298;28;20496;-60
2021/06/23 04:11:27;;;;;;;10.55;7.60;;;11.40;99.90;;;;;;5037358;28;20478;-60
2021/06/23 04:13:53;;;;;;;10.43;7.75;;;12.50;99.90;;;;;;5040113;28;20366;-60
2021/06/23 04:16:19;;;;;;;10.88;7.43;;;;;;;;;;5040252;28;20436;-60
2021/06/23 04:18:45;;;;;;;12.23;8.05;;;11.60;99.90;;;;;;5040192;28;20105;-60
2021/06/23 04:21:11;;;;;;;11.50;8.50;;;12.20;99.90;;;;;;5040151;28;20053;-60
2021/06/23 04:23:37;;;;;;;11.95;8.60;;;12.00;99.90;;;;;;5039965;28;20492;-60
2021/06/23 04:26:03;;;;;;;14.63;8.15;;;11.60;99.90;;;;;;5039969;28;20049;-60
2021/06/23 04:28:29;;;;;;;8.60;7.60;;;12.70;99.90;;;;;;5039764;28;20111;-59
2021/06/23 04:30:55;;;;;;;11.88;7.68;;;11.00;99.90;;;;;;5039297;28;20041;-60
2021/06/23 04:33:21;;;;;;;13.02;9.07;;;;;;;;;;5039814;28;20527;-60
2021/06/23 04:35:50;;;;;;;14.35;9.52;;;11.90;99.90;;;;;;5040412;28;20017;-60
2021/06/23 04:38:16;;;;;;;15.40;8.88;;;12.70;99.90;;;;;;5039735;28;20443;-60
2021/06/23 04:40:43;;;;;;;14.30;9.30;;;15.60;99.90;;;;;;5039803;28;20363;-59
2021/06/23 04:43:09;;;;;;;13.10;9.55;;;12.20;99.90;;;;;;5039318;28;20428;-60
2021/06/23 04:45:35;;;;;;;13.23;10.38;;;13.00;99.90;;;;;;5039243;28;20091;-60
2021/06/23 04:48:01;;;;;;;16.08;9.18;;;;;;;;;;5039446;28;20030;-60
2021/06/23 04:50:27;;;;;;;14.60;9.20;;;;;;;;;;5039636;28;20059;-59
2021/06/23 04:52:53;;;;;;;14.85;9.98;;;12.20;99.90;;;;;;5039376;28;20029;-60
2021/06/23 04:55:19;;;;;;;16.88;9.57;;;12.60;99.90;;;;;;5039650;28;20051;-60
2021/06/23 04:57:45;;;;;;;11.20;10.07;;;12.50;99.90;;;;;;5039412;28;20022;-60
2021/06/23 05:00:12;;;;;;;14.82;10.00;;;13.40;99.90;;;;;;5039394;28;20029;-60
2021/06/23 05:02:38;;;;;;;19.45;10.93;;;14.20;99.90;;;;;;5038875;28;20029;-59
2021/06/23 05:05:05;;;;;;;16.05;9.93;;;12.40;99.90;;;;;;5039318;28;20486;-60
2021/06/23 05:07:31;;;;;;;16.23;9.85;;;11.80;99.90;;;;;;5039082;28;20057;-60
2021/06/23 05:09:56;;;;;;;16.77;9.63;;;12.50;99.90;;;;;;5039243;28;20036;-60
2021/06/23 05:12:26;;;;;;;10.68;9.57;;;;;;;;;;5033564;28;20060;-59
2021/06/23 05:14:52;;;;;;;12.23;9.32;;;12.60;99.90;;;;;;5038266;28;20530;-59
2021/06/23 05:17:18;;;;;;;14.35;9.80;;;13.00;99.90;;;;;;5038640;28;20030;-59
2021/06/23 05:19:44;;;;;;;14.00;9.65;;;11.80;99.90;;;;;;5038563;28;20013;-59
2021/06/23 05:22:11;;;;;;;19.30;9.65;;;14.10;99.90;;;;;;5038823;28;20678;-60
2021/06/23 05:24:39;;;;;;;13.32;9.60;;;12.80;99.90;;;;;;5037808;28;20025;-60
2021/06/23 05:27:06;;;;;;;11.55;9.50;;;12.90;99.90;;;;;;5038204;28;20053;-60
2021/06/23 05:29:32;;;;;;;11.25;10.07;;;13.50;99.90;;;;;;5038661;28;20032;-60
2021/06/23 05:31:58;;;;;;;13.73;9.57;;;13.30;99.90;;;;;;5038113;28;20509;-59
2021/06/23 05:34:24;;;;;;;10.80;9.65;;;13.20;99.90;;;;;;5038270;28;20018;-60
2021/06/23 05:36:50;;;;;;;14.23;9.80;;;12.90;99.90;;;;;;5038469;28;20028;-60
2021/06/23 05:39:16;;;;;;;12.93;10.07;;;13.60;99.90;;;;;;5038788;28;20021;-59
2021/06/23 05:41:41;;;;;;;17.25;10.05;;;12.90;99.90;;;;;;5038506;28;20026;-60
2021/06/23 05:44:07;;;;;;;13.60;9.70;;;13.00;99.90;;;;;;5038609;28;20032;-59
2021/06/23 05:46:33;;;;;;;13.25;8.98;;;14.50;99.90;;;;;;5038196;28;20056;-59
2021/06/23 05:48:59;;;;;;;11.48;9.15;;;13.50;99.90;;;;;;5038658;28;20021;-60
2021/06/23 05:51:25;;;;;;;12.30;9.68;;;14.90;99.90;;;;;;5038273;28;20022;-60
2021/06/23 05:53:51;;;;;;;14.13;10.20;;;12.80;99.90;;;;;;5038325;28;20029;-60
2021/06/23 05:56:16;;;;;;;13.00;9.25;;;13.80;99.90;;;;;;5038472;28;20026;-59
2021/06/23 05:58:42;;;;;;;20.42;9.55;;;13.30;99.90;;;;;;5038367;28;20120;-59
2021/06/23 06:01:08;;;;;;;16.60;10.13;;;15.60;99.90;;;;;;5037852;28;20409;-60
2021/06/23 06:03:34;;;;;;;10.25;8.68;;;12.70;99.90;;;;;;5038145;28;20026;-59
2021/06/23 06:06:02;;;;;;;12.75;8.55;;;15.60;99.90;;;;;;5037931;28;20057;-60
2021/06/23 06:08:28;;;;;;;13.25;9.23;;;14.20;99.90;;;;;;5038268;28;20034;-60
2021/06/23 06:10:55;;;;;;;13.63;9.00;;;14.60;99.90;;;;;;5037885;28;20037;-60
2021/06/23 06:13:21;;;;;;;10.02;8.00;;;15.90;99.90;;;;;;5037852;28;20623;-60
2021/06/23 06:15:46;;;;;;;17.45;9.93;;;13.40;99.90;;;;;;5037557;28;20144;-60
2021/06/23 06:18:12;;;;;;;16.17;9.20;;;14.20;99.90;;;;;;5038043;28;20393;-60
2021/06/23 06:20:40;;;;;;;12.32;8.60;;;14.40;99.90;;;;;;5037737;28;20026;-60
2021/06/23 06:23:06;;;;;;;8.75;7.85;;;12.20;99.90;;;;;;5038028;28;20060;-60
2021/06/23 06:25:32;;;;;;;9.90;8.07;;;14.10;99.90;;;;;;5037518;28;20131;-59
2021/06/23 06:27:58;;;;;;;13.95;8.73;;;12.90;99.90;;;;;;5037779;28;20033;-61
2021/06/23 06:30:26;;;;;;;9.60;8.30;;;14.10;99.90;;;;;;5037096;28;20056;-60
2021/06/23 06:32:52;;;;;;;10.77;7.97;;;13.70;99.90;;;;;;5037726;28;20038;-60
2021/06/23 06:35:18;;;;;;;11.13;7.95;;;14.20;99.90;;;;;;5038043;28;20032;-60
2021/06/23 06:37:44;;;;;;;11.75;7.93;;;14.00;99.90;;;;;;5037701;28;20025;-59
2021/06/23 06:40:11;;;;;;;12.85;7.88;;;14.50;99.90;;;;;;5037361;28;20048;-60
2021/06/23 06:42:36;;;;;;;12.80;7.63;;;14.70;99.90;;;;;;5037316;28;20029;-60
2021/06/23 06:45:04;;;;;;;8.38;7.38;;;14.60;99.90;;;;;;5037472;28;20029;-60
2021/06/23 06:47:30;;;;;;;8.82;7.20;;;13.50;99.90;;;;;;5037181;28;20030;-60
2021/06/23 06:49:56;;;;;;;12.90;8.90;;;15.80;99.90;;;;;;5037258;28;20026;-60
2021/06/23 06:52:22;;;;;;;13.48;8.05;;;14.70;99.90;;;;;;5037208;28;20030;-60
2021/06/23 06:54:48;;;;;;;15.57;8.15;;;15.00;99.90;;;;;;5037304;28;20029;-59
2021/06/23 06:57:14;;;;;;;13.43;7.55;;;15.20;99.90;;;;;;5037056;28;20025;-60
2021/06/23 06:59:40;;;;;;;10.40;7.43;;;16.30;99.90;;;;;;5036983;28;20477;-60
2021/06/23 07:02:06;;;;;;;9.25;6.53;;;15.40;99.90;;;;;;5036784;28;20049;-60
2021/06/23 07:04:32;;;;;;;7.68;6.95;;;15.70;99.90;;;;;;5036951;28;20030;-60
2021/06/23 07:06:59;;;;;;;10.93;7.57;;;14.10;99.90;;;;;;5036982;28;20021;-60
2021/06/23 07:09:24;;;;;;;15.07;7.72;;;15.70;99.90;;;;;;5036808;28;20033;-60
2021/06/23 07:11:51;;;;;;;14.27;7.05;;;15.70;99.90;;;;;;5036773;28;20021;-61
2021/06/23 07:14:20;;;;;;;9.05;6.10;;;15.80;99.90;;;;;;5036875;28;20025;-60
2021/06/23 07:16:46;;;;;;;13.50;7.82;;;15.90;99.90;;;;;;5036914;28;20022;-60
2021/06/23 07:19:13;;;;;;;10.20;6.70;;;15.80;99.90;;;;;;5036805;28;20021;-60
2021/06/23 07:21:40;;;;;;;7.43;6.60;;;15.60;99.90;;;;;;5037000;28;20040;-60
2021/06/23 07:24:06;;;;;;;20.05;8.88;;;15.70;99.90;;;;;;5036599;28;20477;-60
2021/06/23 07:26:32;;;;;;;10.30;7.07;;;15.60;99.90;;;;;;5036976;28;20030;-60
2021/06/23 07:29:01;;;;;;;13.25;7.45;;;15.50;99.90;;;;;;5036386;28;21069;-60
2021/06/23 07:36:50;;;;;;;7.68;6.47;;;15.50;99.90;;;;;;5019217;28;20394;-60
2021/06/23 07:39:18;;;;;;;17.90;7.60;;;15.40;99.90;;;;;;5036823;28;20083;-59
2021/06/23 07:41:47;;;;;;;11.00;7.05;;;15.70;99.90;;;;;;5036254;28;20091;-60
2021/06/23 07:44:15;;;;;;;13.75;6.93;;;15.60;99.90;;;;;;5036551;28;20018;-59
2021/06/23 07:46:50;;;;;;;11.73;7.50;;;15.70;99.90;;;;;;5039353;28;20083;-60
2021/06/23 07:49:16;;;;;;;11.85;6.80;;;15.60;99.90;;;;;;5043550;28;20029;-60
2021/06/23 07:51:58;;;;;;;13.30;6.40;;;;;;;;;;5043241;28;20064;-60
2021/06/23 07:55:09;;;;;;;6.85;4.90;;;17.00;99.90;;;;;;5042871;28;20022;-60
2021/06/23 08:10:38;;;;;;;8.85;5.10;;;16.50;99.90;;;;;;5042885;28;20082;-60
2021/06/23 08:13:05;;;;;;;11.20;5.97;;;17.00;99.90;;;;;;5042874;28;20116;-60
2021/06/23 08:15:33;;;;;;;10.00;4.80;;;17.10;99.90;;;;;;5042368;28;20430;-60
2021/06/23 08:17:59;;;;;;;6.95;4.65;;;17.10;99.90;;;;;;5042871;28;20036;-59
2021/06/23 08:20:27;;;;;;;13.52;6.10;;;17.10;99.90;;;;;;5042748;28;20413;-60
2021/06/23 08:22:53;;;;;;;13.23;5.15;;;17.20;99.90;;;;;;5042894;28;20111;-60
2021/06/23 08:25:21;;;;;;;8.45;4.63;;;17.00;99.90;;;;;;5042702;28;20021;-60
2021/06/23 08:27:47;;;;;;;10.13;5.70;;;16.90;99.90;;;;;;5043062;28;20056;-59
2021/06/23 08:30:14;;;;;;;9.20;4.00;;;16.90;99.90;;;;;;5042294;28;20068;-60
2021/06/23 08:32:40;;;;;;;15.90;6.43;;;16.60;99.90;;;;;;5042921;28;20304;-60
2021/06/23 08:35:08;;;;;;;10.82;4.25;;;16.80;99.90;;;;;;5042084;28;20025;-60
2021/06/23 08:37:34;;;;;;;13.38;5.47;;;17.00;99.90;;;;;;5042742;28;20025;-60
2021/06/23 08:40:00;;;;;;;11.60;4.90;;;17.10;99.90;;;;;;5042768;28;20033;-60
2021/06/23 08:42:26;;;;;;;11.38;4.10;;;16.80;99.90;;;;;;5042624;28;20068;-60
2021/06/23 08:44:53;;;;;;;7.07;5.57;;;16.80;99.90;;;;;;5042560;28;20037;-60
2021/06/23 08:47:19;;;;;;;10.63;5.15;;;17.00;99.90;;;;;;5042570;28;20470;-60
2021/06/23 08:49:46;;;;;;;9.05;5.68;;;16.90;99.90;;;;;;5042459;28;20052;-60
2021/06/23 08:52:13;;;;;;;12.73;5.72;;;16.90;99.90;;;;;;5042572;28;20084;-60
2021/06/23 08:54:43;;;;;;;10.40;4.95;;;16.70;99.90;;;;;;5042425;28;20508;-60
2021/06/23 08:57:10;;;;;;;11.85;5.53;;;16.80;99.90;;;;;;5041834;28;20017;-60
2021/06/23 08:59:40;;;;;;;9.77;5.60;;;16.90;99.90;;;;;;5038261;28;20048;-61
2021/06/23 09:02:07;;;;;;;14.32;5.57;;;17.20;99.90;;;;;;5039280;28;20108;-60
2021/06/23 09:04:33;;;;;;;9.20;5.18;;;17.30;99.90;;;;;;5039244;28;20056;-60
2021/06/23 09:06:59;;;;;;;11.05;4.10;;;17.90;99.90;;;;;;5039178;28;20030;-61
2021/06/23 09:09:25;;;;;;;7.95;4.32;;;;;;;;;;5039096;28;20441;-60
2021/06/23 09:12:05;;;;;;;13.00;5.53;;;;;;;;;;5038921;28;20025;-60
2021/06/23 09:14:38;;;;;;;8.18;4.72;;;18.10;99.90;;;;;;5039012;28;20452;-60
2021/06/23 09:17:10;;;;;;;9.38;4.05;;;;;;;;;;5038796;28;20032;-60
2021/06/23 09:19:40;;;;;;;15.55;4.63;;;18.50;99.90;;;;;;5039241;28;20032;-60
2021/06/23 09:22:31;;;;;;;6.20;4.03;;;18.40;99.90;;;;;;5038816;28;20030;-60
2021/06/23 09:24:57;;;;;;;10.57;4.72;;;18.20;99.90;;;;;;5037515;28;20473;-61
2021/06/23 09:27:28;;;;;;;9.45;4.47;;;18.30;99.90;;;;;;5038754;28;20081;-60
2021/06/23 09:30:23;;;;;;;8.00;4.43;;;17.80;99.90;;;;;;5038709;28;20442;-61
2021/06/23 09:33:08;;;;;;;10.68;4.82;;;17.40;99.90;;;;;;5029731;28;20080;-60
2021/06/23 09:35:35;;;;;;;8.60;5.25;;;17.40;99.90;;;;;;5033114;28;20021;-60
2021/06/23 09:38:01;;;;;;;8.93;4.68;;;17.30;99.90;;;;;;5018913;28;20101;-60
2021/06/23 09:40:30;;;;;;;12.10;5.15;;;17.60;99.90;;;;;;5018922;28;20026;-60
2021/06/23 09:43:01;;;;;;;9.40;5.03;;;17.40;99.90;;;;;;5018803;28;20037;-60
2021/06/23 09:45:29;;;;;;;10.27;4.85;;;17.80;99.90;;;;;;5018608;28;20042;-60
2021/06/23 09:47:59;;;;;;;11.48;4.97;;;17.60;99.90;;;;;;5018488;28;20049;-60
2021/06/23 09:50:27;;;;;;;9.23;4.65;;;17.90;99.90;;;;;;5018857;28;20089;-60
2021/06/23 09:52:54;;;;;;;6.45;3.90;;;18.00;99.90;;;;;;5018550;28;20072;-60
2021/06/23 09:55:21;;;;;;;7.35;4.55;;;18.20;99.90;;;;;;5018852;28;20116;-60
2021/06/23 09:58:06;;;;;;;9.10;4.28;;;17.80;99.90;;;;;;5018549;28;20065;-60
2021/06/23 10:00:34;;;;;;;8.45;4.70;;;17.80;99.90;;;;;;5018148;28;20026;-60
2021/06/23 10:03:04;;;;;;;9.13;4.75;;;17.70;99.90;;;;;;5018231;28;20057;-60
2021/06/23 10:05:31;;;;;;;10.00;5.00;;;18.00;99.90;;;;;;5018325;28;20038;-59
2021/06/23 10:07:57;;;;;;;7.63;4.78;;;17.90;99.90;;;;;;5018367;28;20387;-60
2021/06/23 10:10:41;;;;;;;8.40;5.10;;;18.20;99.90;;;;;;5017989;28;20038;-60
2021/06/23 10:13:07;;;;;;;10.30;5.43;;;18.40;99.90;;;;;;5017981;28;20026;-60
2021/06/23 10:15:33;;;;;;;10.10;4.75;;;18.40;99.90;;;;;;5032912;28;20022;-60
2021/06/23 10:18:01;;;;;;;9.55;5.00;;;18.40;99.90;;;;;;5038172;28;20105;-60
2021/06/23 10:20:27;;;;;;;10.32;5.20;;;18.60;99.90;;;;;;5037915;28;20017;-61
2021/06/23 10:22:53;;;;;;;6.85;4.63;;;19.00;99.90;;;;;;5037907;28;20535;-61
2021/06/23 10:25:20;;;;;;;8.27;4.45;;;18.90;99.90;;;;;;5037793;28;20026;-60
2021/06/23 10:27:51;;;;;;;5.78;4.38;;;18.60;99.90;;;;;;5037916;28;20022;-60
2021/06/23 10:30:19;;;;;;;8.73;4.65;;;19.00;99.90;;;;;;5037274;28;20052;-60
2021/06/23 10:32:45;;;;;;;7.80;4.05;;;19.00;99.90;;;;;;5037642;28;20083;-60
2021/06/23 10:35:14;;;;;;;9.00;4.68;;;19.00;99.90;;;;;;5036997;28;20461;-60
2021/06/23 10:37:41;;;;;;;6.38;3.70;;;18.80;99.90;;;;;;5037396;28;20477;-60
2021/06/23 10:40:10;;;;;;;7.07;4.55;;;18.50;99.90;;;;;;5037459;28;20030;-61
2021/06/23 10:42:36;;;;;;;11.23;5.22;;;19.00;99.90;;;;;;5037286;28;20358;-60
2021/06/23 10:45:04;;;;;;;7.50;4.97;;;19.00;99.90;;;;;;5037244;28;20090;-60
2021/06/23 10:47:37;;;;;;;7.78;5.10;;;19.10;99.90;;;;;;5037344;28;20026;-61
2021/06/23 10:50:04;;;;;;;5.30;3.78;;;;;;;;;;5037374;28;20037;-60
2021/06/23 10:52:34;;;;;;;7.15;4.55;;;19.80;99.90;;;;;;5037238;28;20068;-60
2021/06/23 10:55:01;;;;;;;9.80;4.93;;;;;;;;;;5037368;28;20026;-60
2021/06/23 10:57:36;;;;;;;9.85;4.43;;;;;;;;;;5036885;28;20021;-60
2021/06/23 11:00:30;;;;;;;9.80;5.43;;;;;;;;;;5037072;28;20041;-60
2021/06/23 11:03:05;;;;;;;8.05;4.65;;;;;;;;;;5032004;28;20083;-60
2021/06/23 11:05:36;;;;;;;9.93;4.88;;;;;;;;;;5037125;28;20030;-60
2021/06/23 11:08:02;;;;;;;8.07;4.72;;;;;;;;;;5037096;28;20083;-60
2021/06/23 11:10:36;;;;;;;5.45;3.72;;;;;;;;;;5037055;28;20490;-60
2021/06/23 11:13:07;;;;;;;9.20;4.28;;;;;;;;;;5036601;28;20400;-60
2021/06/23 11:15:36;;;;;;;6.38;3.85;;;;;;;;;;5036434;28;20029;-60
2021/06/23 11:18:21;;;;;;;9.70;3.95;;;;;;;;;;5037093;28;20060;-61
2021/06/23 11:20:57;;;;;;;10.13;4.30;;;;;;;;;;5036184;28;20029;-60
2021/06/23 11:23:42;;;;;;;10.15;4.70;;;;;;;;;;5036837;28;20048;-60
2021/06/23 11:26:09;;;;;;;8.40;4.70;;;;;;;;;;5017068;28;20030;-61
2021/06/23 11:28:36;;;;;;;7.28;4.25;;;18.60;99.90;;;;;;5016823;28;20033;-60
2021/06/23 11:31:10;;;;;;;8.18;4.25;;;19.00;99.90;;;;;;5036010;28;20510;-60
2021/06/23 11:33:36;;;;;;;8.25;5.75;;;18.60;99.90;;;;;;5036673;28;20034;-61
2021/06/23 11:36:23;;;;;;;8.02;5.97;;;18.60;99.90;;;;;;5035844;28;20083;-61
2021/06/23 11:38:52;;;;;;;6.63;3.53;;;18.30;99.90;;;;;;5036685;28;20026;-60
2021/06/23 11:41:19;;;;;;;5.10;4.35;;;18.00;99.90;;;;;;5036952;28;20060;-60
2021/06/23 11:43:45;;;;;;;7.55;4.38;;;18.20;99.90;;;;;;5036701;28;20018;-60
2021/06/23 11:46:12;;;;;;;7.70;3.88;;;18.10;99.90;;;;;;5036167;28;20413;-60
2021/06/23 11:48:39;;;;;;;7.95;3.70;;;17.70;99.90;;;;;;5036672;28;20505;-60
2021/06/23 11:51:05;;;;;;;6.40;4.63;;;17.70;99.90;;;;;;5036642;28;20108;-60
2021/06/23 11:53:32;;;;;;;5.80;4.38;;;17.50;99.90;;;;;;5036611;28;20080;-60
2021/06/23 11:55:58;;;;;;;6.38;4.20;;;17.40;99.90;;;;;;5036338;28;20026;-60
2021/06/23 11:58:23;;;;;;;10.02;4.47;;;17.40;99.90;;;;;;5036502;28;20022;-60
2021/06/23 12:00:49;;;;;;;10.13;5.13;;;17.40;99.90;;;;;;5036371;28;20036;-60
2021/06/23 12:03:17;;;;;;;7.40;4.13;;;17.20;99.90;;;;;;5036625;28;20036;-60
2021/06/23 12:05:45;;;;;;;6.78;5.10;;;17.30;99.90;;;;;;5036160;28;20033;-60
2021/06/23 12:08:11;;;;;;;10.25;4.78;;;17.40;99.90;;;;;;5036561;28;20443;-60
2021/06/23 12:10:39;;;;;;;8.82;4.35;;;17.50;99.90;;;;;;5036256;28;20048;-60
2021/06/23 12:13:06;;;;;;;7.47;4.50;;;17.50;99.90;;;;;;5036276;28;20029;-60
2021/06/23 12:15:33;;;;;;;6.40;4.32;;;17.80;99.90;;;;;;5035788;28;20018;-60
2021/06/23 12:18:02;;;;;;;9.45;4.75;;;18.30;99.90;;;;;;5036464;28;20080;-60
2021/06/23 12:20:30;;;;;;;7.30;4.13;;;18.80;99.90;;;;;;5036171;28;20040;-60
2021/06/23 12:22:59;;;;;;;8.32;3.95;;;19.20;99.90;;;;;;5036213;28;20052;-60
2021/06/23 12:25:27;;;;;;;10.68;4.05;;;20.20;99.90;;;;;;5036007;28;20036;-60
2021/06/23 12:27:54;;;;;;;8.48;3.95;;;20.20;99.90;;;;;;5036011;28;20068;-60
2021/06/23 12:30:25;;;;;;;11.75;4.90;;;21.40;99.90;;;;;;5035650;28;20171;-60
2021/06/23 12:32:51;;;;;;;5.55;3.15;;;21.90;99.90;;;;;;5037845;28;20064;-61
2021/06/23 12:35:17;;;;;;;7.45;3.20;;;22.60;99.90;;;;;;5039299;28;20014;-61
2021/06/23 12:37:43;;;;;;;5.40;3.50;;;22.80;99.90;;;;;;5039795;28;20029;-60
2021/06/23 12:40:09;;;;;;;8.15;2.97;;;22.80;99.90;;;;;;5039777;28;20085;-61
2021/06/23 12:42:35;;;;;;;7.95;3.90;;;22.90;99.90;;;;;;5039870;28;20096;-61
2021/06/23 12:45:01;;;;;;;5.93;3.05;;;22.20;99.90;;;;;;5039385;28;20025;-61
2021/06/23 12:47:27;;;;;;;7.00;3.08;;;22.30;99.90;;;;;;5039817;28;20476;-61
2021/06/23 12:49:53;;;;;;;9.98;4.63;;;22.00;99.90;;;;;;5039589;28;20026;-61
2021/06/23 12:52:19;;;;;;;9.60;3.38;;;22.00;99.90;;;;;;5039697;28;20104;-60
2021/06/23 12:54:45;;;;;;;10.05;3.42;;;22.20;99.90;;;;;;5039626;28;20076;-60
2021/06/23 12:57:11;;;;;;;8.75;3.53;;;22.00;99.90;;;;;;5039366;28;20305;-60
2021/06/23 12:59:36;;;;;;;6.28;3.05;;;21.20;99.90;;;;;;5039556;28;20433;-60
2021/06/23 13:02:02;;;;;;;5.25;3.10;;;21.20;99.90;;;;;;5039079;28;20027;-60
2021/06/23 13:04:28;;;;;;;7.40;3.55;;;21.20;99.90;;;;;;5039349;28;20026;-61
2021/06/23 13:06:54;;;;;;;9.02;2.83;;;21.50;99.90;;;;;;5039265;28;20013;-60
2021/06/23 13:09:22;;;;;;;7.05;3.63;;;21.40;99.90;;;;;;5039312;28;20595;-60